Fairfield, NE (68938)

03:47 CST le 09 février 2016 (GMT -0600)
Spring Ranch | | Change Station
CLOSE
Current Station
Stations météorologiques personnelles
Location: Glenvil, NE
Altitude: 1781 ft
Stations météo à proximité

Alt. 1781 ft 40.42 °N, 98.26 °W | Updated 3 seconds ago

Ciel dégagé
Ciel dégagé
23.1 ° F
Paraît 12 ° F
N
11.5
Vent Variable Vent de NNO
Gusts 11.5 mph

Aujourd'hui
Haut(e) -- | Bas -- ° F
--% Risque de précip.
Hier
Haut(e) -- | Bas -- ° F
Precip. -- pouce
Pression 30.22 pouce
Visibilité 10.0 Miles terrestres
Nuages Ciel dégagé
Refroidissement éolien 12 ° F
Point de rosée 17 ° F
Humidité 78%
Précipitations 0.00 pouce
Profondeur de la couche neigeuse Non disponible.
7:33 AM 5:59 PM
Nouvelle lune, 1% visible
METAR KHSI 090853Z AUTO 31011KT 10SM CLR M07/M11 A3015 RMK AO2 SLP232 T10671111 58002
Pression 30.22 pouce
Visibilité 10.0 Miles terrestres
Nuages Ciel dégagé
Refroidissement éolien 12 ° F
Point de rosée 17 ° F
Humidité 78%
Précipitations 0.00 pouce
Profondeur de la couche neigeuse Non disponible.
7:33 AM 5:59 PM
Nouvelle lune, 1% visible
METAR KHSI 090853Z AUTO 31011KT 10SM CLR M07/M11 A3015 RMK AO2 SLP232 T10671111 58002

10-Day Weather Forecast

Almanac

Astronomie

Feb. 09, 2016 Lever Coucher
Temps réel
Crépuscule civil
Crépuscule nautique
Crépuscule astronomique
Lune
Durée de lumière visible
Longueur du jour
Tomorrow will be .
, % of the Moon is Illuminated

Extrêmes aujourd'hui

State Highs State Lows

Community

WunderPhotos

Upload Photos

1,891,565 Photos téléchargées !

WunderBlog® & News

Nearby

Qualité de l'air

  Qualité de l'air Indice de la qualité de l'air Polluant
Not available.

Épaisseur de neige

Station Depth Altitude

Activité sismique

Ville Distance Mag. Time & Date
Minimum magnitude displayed is 2.5.

Températures des eaux côtières

Lieu Température

Stations

Stations météo à proximité

Emplacement de la station Température Refroidissement éolien Point de rosée Humidité Vent Precip. Alt. Mise à jour Type
                   

Watches & Warnings

There are currently no watches in effect.